sensor_id;sensor_type;location;lat;lon;timestamp;pressure;altitude;pressure_sealevel;temperature;humidity
50364;BME280;36272;59.400;17.982;2023-02-19T00:04:24;99856.06;;;0.73;71.59
50364;BME280;36272;59.400;17.982;2023-02-19T00:09:26;99862.66;;;0.69;71.87
50364;BME280;36272;59.400;17.982;2023-02-19T00:14:27;99854.31;;;0.65;71.95
50364;BME280;36272;59.400;17.982;2023-02-19T00:19:32;99848.25;;;0.65;71.34
50364;BME280;36272;59.400;17.982;2023-02-19T00:24:34;99858.13;;;0.63;71.55
50364;BME280;36272;59.400;17.982;2023-02-19T00:29:35;99848.78;;;0.60;71.19
50364;BME280;36272;59.400;17.982;2023-02-19T00:34:37;99861.28;;;0.58;71.92
50364;BME280;36272;59.400;17.982;2023-02-19T00:39:39;99868.72;;;0.54;71.04
50364;BME280;36272;59.400;17.982;2023-02-19T00:44:40;99861.81;;;0.53;71.06
50364;BME280;36272;59.400;17.982;2023-02-19T00:49:42;99863.81;;;0.51;71.12
50364;BME280;36272;59.400;17.982;2023-02-19T00:54:43;99866.59;;;0.50;71.31
50364;BME280;36272;59.400;17.982;2023-02-19T00:59:45;99863.19;;;0.49;70.93
50364;BME280;36272;59.400;17.982;2023-02-19T01:04:47;99857.25;;;0.47;71.13
50364;BME280;36272;59.400;17.982;2023-02-19T01:09:48;99860.06;;;0.46;71.05
50364;BME280;36272;59.400;17.982;2023-02-19T01:14:50;99865.69;;;0.42;70.96
50364;BME280;36272;59.400;17.982;2023-02-19T01:19:52;99874.75;;;0.40;70.60
50364;BME280;36272;59.400;17.982;2023-02-19T01:24:53;99858.97;;;0.40;71.08
50364;BME280;36272;59.400;17.982;2023-02-19T01:29:55;99864.41;;;0.38;70.48
50364;BME280;36272;59.400;17.982;2023-02-19T01:34:57;99860.50;;;0.34;70.30
50364;BME280;36272;59.400;17.982;2023-02-19T01:39:58;99866.56;;;0.35;70.50
50364;BME280;36272;59.400;17.982;2023-02-19T01:50:27;99855.59;;;0.31;69.92
50364;BME280;36272;59.400;17.982;2023-02-19T01:55:30;99852.31;;;0.29;69.29
50364;BME280;36272;59.400;17.982;2023-02-19T02:00:33;99855.59;;;0.31;70.35
50364;BME280;36272;59.400;17.982;2023-02-19T02:05:57;99862.84;;;0.29;70.18
50364;BME280;36272;59.400;17.982;2023-02-19T02:11:03;99859.38;;;0.28;70.12
50364;BME280;36272;59.400;17.982;2023-02-19T02:32:04;99854.63;;;0.24;69.05
50364;BME280;36272;59.400;17.982;2023-02-19T02:37:11;99839.22;;;0.21;69.00
50364;BME280;36272;59.400;17.982;2023-02-19T02:42:14;99844.28;;;0.22;69.35
50364;BME280;36272;59.400;17.982;2023-02-19T02:47:30;99836.75;;;0.19;68.56
50364;BME280;36272;59.400;17.982;2023-02-19T02:52:43;99848.09;;;0.20;68.57
50364;BME280;36272;59.400;17.982;2023-02-19T02:58:05;99851.56;;;0.20;68.40
50364;BME280;36272;59.400;17.982;2023-02-19T03:03:07;99857.81;;;0.19;68.30
50364;BME280;36272;59.400;17.982;2023-02-19T03:08:15;99855.19;;;0.19;68.57
50364;BME280;36272;59.400;17.982;2023-02-19T03:13:32;99863.88;;;0.20;68.27
50364;BME280;36272;59.400;17.982;2023-02-19T03:18:55;99858.31;;;0.14;68.27
50364;BME280;36272;59.400;17.982;2023-02-19T03:24:21;99865.41;;;0.14;68.78
50364;BME280;36272;59.400;17.982;2023-02-19T03:29:43;99878.72;;;0.12;68.32
50364;BME280;36272;59.400;17.982;2023-02-19T03:34:54;99881.19;;;0.14;68.45
50364;BME280;36272;59.400;17.982;2023-02-19T03:39:57;99877.56;;;0.15;68.84
50364;BME280;36272;59.400;17.982;2023-02-19T03:45:14;99893.81;;;0.19;68.48
50364;BME280;36272;59.400;17.982;2023-02-19T03:50:28;99892.66;;;0.21;68.21
50364;BME280;36272;59.400;17.982;2023-02-19T04:01:18;99909.94;;;0.39;68.12
50364;BME280;36272;59.400;17.982;2023-02-19T04:06:26;99913.56;;;0.38;67.81
50364;BME280;36272;59.400;17.982;2023-02-19T04:11:29;99917.53;;;0.34;68.20
50364;BME280;36272;59.400;17.982;2023-02-19T04:16:36;99909.50;;;0.35;67.87
50364;BME280;36272;59.400;17.982;2023-02-19T04:21:40;99919.47;;;0.40;67.79
50364;BME280;36272;59.400;17.982;2023-02-19T04:26:43;99928.97;;;0.49;68.20
50364;BME280;36272;59.400;17.982;2023-02-19T04:31:45;99923.81;;;0.56;67.87
50364;BME280;36272;59.400;17.982;2023-02-19T04:36:47;99922.94;;;0.64;67.81
50364;BME280;36272;59.400;17.982;2023-02-19T04:41:49;99920.22;;;0.72;67.30
50364;BME280;36272;59.400;17.982;2023-02-19T04:46:50;99921.53;;;0.76;67.37
50364;BME280;36272;59.400;17.982;2023-02-19T04:51:52;99939.94;;;0.76;67.15
50364;BME280;36272;59.400;17.982;2023-02-19T04:56:53;99922.56;;;0.67;67.29
50364;BME280;36272;59.400;17.982;2023-02-19T05:01:55;99926.63;;;0.54;67.14
50364;BME280;36272;59.400;17.982;2023-02-19T05:06:58;99922.06;;;0.48;66.60
50364;BME280;36272;59.400;17.982;2023-02-19T05:12:00;99925.84;;;0.46;67.38
50364;BME280;36272;59.400;17.982;2023-02-19T05:17:03;99920.13;;;0.42;66.89
50364;BME280;36272;59.400;17.982;2023-02-19T05:22:04;99925.75;;;0.39;66.68
50364;BME280;36272;59.400;17.982;2023-02-19T05:27:06;99921.81;;;0.35;66.88
50364;BME280;36272;59.400;17.982;2023-02-19T05:32:08;99929.25;;;0.31;66.57
50364;BME280;36272;59.400;17.982;2023-02-19T05:37:10;99929.75;;;0.26;66.55
50364;BME280;36272;59.400;17.982;2023-02-19T05:42:12;99944.25;;;0.22;67.23
50364;BME280;36272;59.400;17.982;2023-02-19T05:47:14;99951.66;;;0.19;67.30
50364;BME280;36272;59.400;17.982;2023-02-19T05:52:16;99937.41;;;0.13;66.18
50364;BME280;36272;59.400;17.982;2023-02-19T05:57:18;99944.66;;;0.11;66.86
50364;BME280;36272;59.400;17.982;2023-02-19T06:02:20;99957.97;;;0.09;67.27
50364;BME280;36272;59.400;17.982;2023-02-19T06:07:22;99952.25;;;0.06;67.14
50364;BME280;36272;59.400;17.982;2023-02-19T06:12:24;99964.72;;;0.04;67.13
50364;BME280;36272;59.400;17.982;2023-02-19T06:17:25;99969.16;;;0.03;66.97
50364;BME280;36272;59.400;17.982;2023-02-19T06:22:27;99966.72;;;0.02;66.63
50364;BME280;36272;59.400;17.982;2023-02-19T06:27:29;99978.22;;;0.01;66.86
50364;BME280;36272;59.400;17.982;2023-02-19T06:32:31;99991.56;;;-0.01;66.90
50364;BME280;36272;59.400;17.982;2023-02-19T06:37:32;99985.47;;;-0.02;67.12
50364;BME280;36272;59.400;17.982;2023-02-19T06:42:34;99996.81;;;-0.01;66.77
50364;BME280;36272;59.400;17.982;2023-02-19T06:47:36;100009.97;;;-0.01;66.62
50364;BME280;36272;59.400;17.982;2023-02-19T06:52:38;100014.84;;;0.02;67.29
50364;BME280;36272;59.400;17.982;2023-02-19T06:57:39;100005.19;;;0.03;67.22
50364;BME280;36272;59.400;17.982;2023-02-19T07:02:41;100009.78;;;0.01;66.84
50364;BME280;36272;59.400;17.982;2023-02-19T07:07:44;100014.84;;;0.02;66.76
50364;BME280;36272;59.400;17.982;2023-02-19T07:12:46;100016.34;;;0.05;67.04
50364;BME280;36272;59.400;17.982;2023-02-19T07:17:48;100023.06;;;0.07;66.32
50364;BME280;36272;59.400;17.982;2023-02-19T07:22:50;100023.72;;;0.09;66.50
50364;BME280;36272;59.400;17.982;2023-02-19T07:27:54;100025.34;;;0.10;66.37
50364;BME280;36272;59.400;17.982;2023-02-19T07:32:56;100037.38;;;0.13;66.53
50364;BME280;36272;59.400;17.982;2023-02-19T07:38:00;100036.03;;;0.17;66.68
50364;BME280;36272;59.400;17.982;2023-02-19T07:43:04;100023.88;;;0.16;66.36
50364;BME280;36272;59.400;17.982;2023-02-19T07:48:15;100042.75;;;0.20;66.17
50364;BME280;36272;59.400;17.982;2023-02-19T07:53:18;100042.59;;;0.21;66.25
50364;BME280;36272;59.400;17.982;2023-02-19T07:58:20;100050.13;;;0.24;65.95
50364;BME280;36272;59.400;17.982;2023-02-19T08:03:24;100053.25;;;0.28;65.54
50364;BME280;36272;59.400;17.982;2023-02-19T08:08:25;100065.22;;;0.31;65.63
50364;BME280;36272;59.400;17.982;2023-02-19T08:13:29;100050.75;;;0.35;65.42
50364;BME280;36272;59.400;17.982;2023-02-19T08:18:31;100062.56;;;0.39;65.75
50364;BME280;36272;59.400;17.982;2023-02-19T08:23:33;100048.91;;;0.43;65.08
50364;BME280;36272;59.400;17.982;2023-02-19T08:28:35;100065.16;;;0.47;65.20
50364;BME280;36272;59.400;17.982;2023-02-19T08:33:37;100069.75;;;0.53;64.92
50364;BME280;36272;59.400;17.982;2023-02-19T08:38:39;100075.47;;;0.57;64.94
50364;BME280;36272;59.400;17.982;2023-02-19T08:43:42;100074.81;;;0.63;64.90
50364;BME280;36272;59.400;17.982;2023-02-19T08:48:44;100062.75;;;0.69;65.19
50364;BME280;36272;59.400;17.982;2023-02-19T08:53:45;100085.09;;;0.73;64.78
50364;BME280;36272;59.400;17.982;2023-02-19T08:59:01;100073.88;;;0.79;64.39
50364;BME280;36272;59.400;17.982;2023-02-19T09:04:03;100090.63;;;0.86;64.66
50364;BME280;36272;59.400;17.982;2023-02-19T09:09:07;100095.22;;;0.93;64.09
50364;BME280;36272;59.400;17.982;2023-02-19T09:14:09;100093.00;;;1.04;64.35
50364;BME280;36272;59.400;17.982;2023-02-19T09:19:11;100102.50;;;1.14;63.91
50364;BME280;36272;59.400;17.982;2023-02-19T09:24:18;100102.16;;;1.17;63.26
50364;BME280;36272;59.400;17.982;2023-02-19T09:29:23;100103.25;;;1.23;63.60
50364;BME280;36272;59.400;17.982;2023-02-19T09:34:27;100118.38;;;1.29;63.39
50364;BME280;36272;59.400;17.982;2023-02-19T09:39:31;100111.75;;;1.33;63.34
50364;BME280;36272;59.400;17.982;2023-02-19T09:44:36;100113.13;;;1.44;63.11
50364;BME280;36272;59.400;17.982;2023-02-19T09:49:39;100096.00;;;1.63;63.26
50364;BME280;36272;59.400;17.982;2023-02-19T09:54:42;100112.28;;;1.52;62.85
50364;BME280;36272;59.400;17.982;2023-02-19T10:00:05;100122.72;;;1.60;63.25
50364;BME280;36272;59.400;17.982;2023-02-19T10:05:15;100115.75;;;1.67;62.66
50364;BME280;36272;59.400;17.982;2023-02-19T10:10:23;100119.03;;;1.69;62.26
50364;BME280;36272;59.400;17.982;2023-02-19T10:15:38;100134.78;;;1.77;62.33
50364;BME280;36272;59.400;17.982;2023-02-19T10:20:45;100134.25;;;1.82;61.66
50364;BME280;36272;59.400;17.982;2023-02-19T10:25:55;100138.00;;;1.88;61.54
50364;BME280;36272;59.400;17.982;2023-02-19T10:31:04;100149.13;;;1.98;61.54
50364;BME280;36272;59.400;17.982;2023-02-19T10:41:48;100167.16;;;2.25;60.81
50364;BME280;36272;59.400;17.982;2023-02-19T10:47:17;100160.34;;;2.30;60.51
50364;BME280;36272;59.400;17.982;2023-02-19T10:52:31;100156.00;;;2.37;60.16
50364;BME280;36272;59.400;17.982;2023-02-19T10:57:34;100172.72;;;2.45;60.04
50364;BME280;36272;59.400;17.982;2023-02-19T11:02:38;100164.72;;;2.53;60.18
50364;BME280;36272;59.400;17.982;2023-02-19T11:12:49;100166.19;;;2.71;59.24
50364;BME280;36272;59.400;17.982;2023-02-19T11:23:12;100172.38;;;2.78;59.48
50364;BME280;36272;59.400;17.982;2023-02-19T11:33:21;100182.16;;;2.99;59.48
50364;BME280;36272;59.400;17.982;2023-02-19T11:38:24;100190.75;;;3.60;58.25
50364;BME280;36272;59.400;17.982;2023-02-19T11:54:05;100172.13;;;10.44;49.93
50364;BME280;36272;59.400;17.982;2023-02-19T12:26:00;100200.84;;;18.17;38.46
50364;BME280;36272;59.400;17.982;2023-02-19T12:37:49;100202.13;;;18.97;37.46
50364;BME280;36272;59.400;17.982;2023-02-19T12:47:58;100199.69;;;19.39;35.72
50364;BME280;36272;59.400;17.982;2023-02-19T12:53:22;100196.88;;;19.25;35.23
50364;BME280;36272;59.400;17.982;2023-02-19T13:09:27;100214.97;;;19.30;34.58
50364;BME280;36272;59.400;17.982;2023-02-19T13:14:39;100198.84;;;19.00;34.79
50364;BME280;36272;59.400;17.982;2023-02-19T13:19:44;100210.47;;;19.01;34.61
50364;BME280;36272;59.400;17.982;2023-02-19T13:24:48;100215.41;;;18.75;34.14
50364;BME280;36272;59.400;17.982;2023-02-19T13:40:54;100229.13;;;14.77;36.94
50364;BME280;36272;59.400;17.982;2023-02-19T13:45:59;100236.13;;;13.43;37.77
50364;BME280;36272;59.400;17.982;2023-02-19T14:12:34;100261.75;;;6.56;44.72
50364;BME280;36272;59.400;17.982;2023-02-19T14:27:46;100282.19;;;6.55;44.85
50364;BME280;36272;59.400;17.982;2023-02-19T14:32:49;100293.84;;;6.34;45.36
50364;BME280;36272;59.400;17.982;2023-02-19T14:37:54;100306.06;;;6.02;45.69
50364;BME280;36272;59.400;17.982;2023-02-19T14:42:57;100299.41;;;5.57;46.45
50364;BME280;36272;59.400;17.982;2023-02-19T14:47:59;100311.44;;;5.11;46.80
50364;BME280;36272;59.400;17.982;2023-02-19T14:53:03;100313.09;;;4.77;47.52
50364;BME280;36272;59.400;17.982;2023-02-19T14:58:21;100328.13;;;4.48;47.76
50364;BME280;36272;59.400;17.982;2023-02-19T15:03:36;100328.09;;;4.20;48.10
50364;BME280;36272;59.400;17.982;2023-02-19T15:08:51;100319.78;;;4.01;48.81
50364;BME280;36272;59.400;17.982;2023-02-19T15:14:02;100326.31;;;3.83;49.21
50364;BME280;36272;59.400;17.982;2023-02-19T15:19:07;100334.47;;;3.67;49.57
50364;BME280;36272;59.400;17.982;2023-02-19T15:24:10;100341.97;;;3.48;50.13
50364;BME280;36272;59.400;17.982;2023-02-19T15:29:16;100352.72;;;3.32;50.47
50364;BME280;36272;59.400;17.982;2023-02-19T15:34:24;100349.94;;;3.18;50.90
50364;BME280;36272;59.400;17.982;2023-02-19T15:44:49;100374.94;;;2.92;51.56
50364;BME280;36272;59.400;17.982;2023-02-19T16:06:19;100391.25;;;2.43;52.39
50364;BME280;36272;59.400;17.982;2023-02-19T16:11:32;100389.81;;;2.32;52.95
50364;BME280;36272;59.400;17.982;2023-02-19T16:16:37;100400.41;;;2.23;53.11
50364;BME280;36272;59.400;17.982;2023-02-19T16:21:42;100401.47;;;2.14;53.06
50364;BME280;36272;59.400;17.982;2023-02-19T16:26:44;100403.97;;;2.07;53.30
50364;BME280;36272;59.400;17.982;2023-02-19T16:31:58;100397.59;;;2.02;53.63
50364;BME280;36272;59.400;17.982;2023-02-19T16:37:01;100390.53;;;1.94;53.79
50364;BME280;36272;59.400;17.982;2023-02-19T16:42:13;100393.53;;;1.91;53.89
50364;BME280;36272;59.400;17.982;2023-02-19T16:47:24;100381.03;;;1.85;54.09
50364;BME280;36272;59.400;17.982;2023-02-19T16:52:26;100382.38;;;1.81;53.98
50364;BME280;36272;59.400;17.982;2023-02-19T16:57:28;100384.03;;;1.73;54.51
50364;BME280;36272;59.400;17.982;2023-02-19T17:02:30;100385.38;;;1.69;54.43
50364;BME280;36272;59.400;17.982;2023-02-19T17:07:33;100381.78;;;1.62;54.93
50364;BME280;36272;59.400;17.982;2023-02-19T17:12:35;100390.84;;;1.59;55.06
50364;BME280;36272;59.400;17.982;2023-02-19T17:17:37;100399.25;;;1.55;55.18
50364;BME280;36272;59.400;17.982;2023-02-19T17:22:38;100404.91;;;1.52;55.49
50364;BME280;36272;59.400;17.982;2023-02-19T17:27:40;100385.13;;;1.47;55.67
50364;BME280;36272;59.400;17.982;2023-02-19T17:32:41;100384.31;;;1.47;55.76
50364;BME280;36272;59.400;17.982;2023-02-19T17:37:43;100390.09;;;1.42;55.82
50364;BME280;36272;59.400;17.982;2023-02-19T17:42:45;100393.06;;;1.39;55.98
50364;BME280;36272;59.400;17.982;2023-02-19T17:47:46;100390.78;;;1.36;56.08
50364;BME280;36272;59.400;17.982;2023-02-19T17:52:48;100398.03;;;1.34;56.14
50364;BME280;36272;59.400;17.982;2023-02-19T17:57:51;100387.81;;;1.31;56.35
50364;BME280;36272;59.400;17.982;2023-02-19T18:02:53;100408.25;;;1.29;56.20
50364;BME280;36272;59.400;17.982;2023-02-19T18:07:55;100418.97;;;1.27;56.40
50364;BME280;36272;59.400;17.982;2023-02-19T18:12:56;100430.31;;;1.28;56.30
50364;BME280;36272;59.400;17.982;2023-02-19T18:17:58;100435.59;;;1.28;56.40
50364;BME280;36272;59.400;17.982;2023-02-19T18:23:00;100432.28;;;1.26;56.46
50364;BME280;36272;59.400;17.982;2023-02-19T18:28:02;100434.28;;;1.24;56.47
50364;BME280;36272;59.400;17.982;2023-02-19T18:33:03;100444.00;;;1.23;56.44
50364;BME280;36272;59.400;17.982;2023-02-19T18:38:05;100451.41;;;1.19;56.62
50364;BME280;36272;59.400;17.982;2023-02-19T18:43:07;100458.50;;;1.19;56.86
50364;BME280;36272;59.400;17.982;2023-02-19T18:48:08;100468.88;;;1.21;56.60
50364;BME280;36272;59.400;17.982;2023-02-19T18:53:10;100453.38;;;1.17;56.68
50364;BME280;36272;59.400;17.982;2023-02-19T18:58:12;100460.63;;;1.15;56.67
50364;BME280;36272;59.400;17.982;2023-02-19T19:03:13;100454.72;;;1.13;57.01
50364;BME280;36272;59.400;17.982;2023-02-19T19:08:15;100461.16;;;1.11;56.85
50364;BME280;36272;59.400;17.982;2023-02-19T19:13:17;100471.19;;;1.07;57.03
50364;BME280;36272;59.400;17.982;2023-02-19T19:18:18;100452.09;;;1.05;57.05
50364;BME280;36272;59.400;17.982;2023-02-19T19:23:20;100458.84;;;0.99;57.20
50364;BME280;36272;59.400;17.982;2023-02-19T19:28:22;100453.91;;;0.96;57.33
50364;BME280;36272;59.400;17.982;2023-02-19T19:33:24;100452.44;;;0.94;57.44
50364;BME280;36272;59.400;17.982;2023-02-19T19:38:25;100463.28;;;0.91;57.48
50364;BME280;36272;59.400;17.982;2023-02-19T19:43:28;100462.63;;;0.88;57.44
50364;BME280;36272;59.400;17.982;2023-02-19T19:48:30;100448.00;;;0.86;57.73
50364;BME280;36272;59.400;17.982;2023-02-19T19:53:33;100464.94;;;0.83;57.52
50364;BME280;36272;59.400;17.982;2023-02-19T19:58:35;100459.19;;;0.80;57.74
50364;BME280;36272;59.400;17.982;2023-02-19T20:03:37;100461.16;;;0.78;57.79
50364;BME280;36272;59.400;17.982;2023-02-19T20:08:39;100468.38;;;0.76;57.99
50364;BME280;36272;59.400;17.982;2023-02-19T20:13:40;100467.72;;;0.73;57.92
50364;BME280;36272;59.400;17.982;2023-02-19T20:18:42;100473.16;;;0.72;58.02
50364;BME280;36272;59.400;17.982;2023-02-19T20:23:44;100468.19;;;0.69;57.97
50364;BME280;36272;59.400;17.982;2023-02-19T20:28:46;100484.84;;;0.69;58.12
50364;BME280;36272;59.400;17.982;2023-02-19T20:33:49;100476.28;;;0.67;58.19
50364;BME280;36272;59.400;17.982;2023-02-19T20:38:51;100485.16;;;0.66;58.28
50364;BME280;36272;59.400;17.982;2023-02-19T20:43:53;100489.44;;;0.67;58.21
50364;BME280;36272;59.400;17.982;2023-02-19T20:48:55;100490.44;;;0.66;58.30
50364;BME280;36272;59.400;17.982;2023-02-19T20:53:57;100497.50;;;0.66;58.23
50364;BME280;36272;59.400;17.982;2023-02-19T20:58:59;100484.00;;;0.61;58.34
50364;BME280;36272;59.400;17.982;2023-02-19T21:04:00;100492.22;;;0.57;58.35
50364;BME280;36272;59.400;17.982;2023-02-19T21:09:02;100481.69;;;0.57;58.44
50364;BME280;36272;59.400;17.982;2023-02-19T21:14:04;100482.84;;;0.55;58.36
50364;BME280;36272;59.400;17.982;2023-02-19T21:19:06;100469.84;;;0.53;58.53
50364;BME280;36272;59.400;17.982;2023-02-19T21:24:08;100468.34;;;0.51;58.56
50364;BME280;36272;59.400;17.982;2023-02-19T21:29:19;100459.63;;;0.50;58.62
50364;BME280;36272;59.400;17.982;2023-02-19T21:34:25;100460.78;;;0.48;58.61
50364;BME280;36272;59.400;17.982;2023-02-19T21:39:27;100456.03;;;0.59;58.59
50364;BME280;36272;59.400;17.982;2023-02-19T21:44:28;100466.34;;;0.44;58.75
50364;BME280;36272;59.400;17.982;2023-02-19T21:49:30;100492.34;;;0.39;58.90
50364;BME280;36272;59.400;17.982;2023-02-19T21:54:32;100484.78;;;0.36;58.87
50364;BME280;36272;59.400;17.982;2023-02-19T21:59:33;100484.94;;;0.35;59.01
50364;BME280;36272;59.400;17.982;2023-02-19T22:04:35;100487.88;;;0.32;59.06
50364;BME280;36272;59.400;17.982;2023-02-19T22:09:37;100482.13;;;0.28;59.09
50364;BME280;36272;59.400;17.982;2023-02-19T22:14:39;100482.25;;;0.26;59.20
50364;BME280;36272;59.400;17.982;2023-02-19T22:19:40;100482.25;;;0.26;59.16
50364;BME280;36272;59.400;17.982;2023-02-19T22:24:42;100477.19;;;0.25;59.21
50364;BME280;36272;59.400;17.982;2023-02-19T22:29:44;100472.22;;;0.22;59.22
50364;BME280;36272;59.400;17.982;2023-02-19T22:34:45;100478.78;;;0.18;59.21
50364;BME280;36272;59.400;17.982;2023-02-19T22:39:47;100472.06;;;0.15;59.29
50364;BME280;36272;59.400;17.982;2023-02-19T22:44:49;100469.75;;;0.12;59.49
50364;BME280;36272;59.400;17.982;2023-02-19T22:49:51;100467.56;;;0.07;59.69
50364;BME280;36272;59.400;17.982;2023-02-19T22:54:55;100454.91;;;0.03;59.62
50364;BME280;36272;59.400;17.982;2023-02-19T22:59:57;100451.28;;;0.04;59.77
50364;BME280;36272;59.400;17.982;2023-02-19T23:04:58;100449.66;;;0.03;59.74
50364;BME280;36272;59.400;17.982;2023-02-19T23:10:00;100435.03;;;0.00;59.75
50364;BME280;36272;59.400;17.982;2023-02-19T23:15:03;100435.16;;;-0.02;59.86
50364;BME280;36272;59.400;17.982;2023-02-19T23:20:05;100430.22;;;-0.05;60.11
50364;BME280;36272;59.400;17.982;2023-02-19T23:25:07;100412.97;;;-0.07;60.09
50364;BME280;36272;59.400;17.982;2023-02-19T23:30:09;100402.91;;;-0.12;60.26
50364;BME280;36272;59.400;17.982;2023-02-19T23:35:11;100406.84;;;-0.16;60.26
50364;BME280;36272;59.400;17.982;2023-02-19T23:40:14;100416.88;;;-0.20;60.39
50364;BME280;36272;59.400;17.982;2023-02-19T23:45:15;100410.75;;;-0.20;60.50
50364;BME280;36272;59.400;17.982;2023-02-19T23:50:17;100397.13;;;-0.24;60.53
50364;BME280;36272;59.400;17.982;2023-02-19T23:55:19;100398.09;;;-0.25;60.55
